Time;durP1;ratioP1;P1;durP2;ratioP2;P2;SDS_P1;SDS_P2;PMS_P1;PMS_P2;Temp;Humidity;BMP_temperature;BMP_pressure;BME280_temperature;BME280_humidity;BME280_pressure;Samples;Min_cycle;Max_cycle;Signal;HPM_P1;HPM_P2
2021/12/25 00:00:19;;;;;;;0.20;0.20;;;;;;;5.68;100.00;99083.06;5045251;28;20487;-76
2021/12/25 00:02:46;;;;;;;0.20;0.20;;;;;;;5.70;100.00;99089.13;5045039;28;20698;-76
2021/12/25 00:05:14;;;;;;;0.20;0.20;;;;;;;5.67;100.00;99090.09;5043094;28;20471;-76
2021/12/25 00:07:41;;;;;;;0.30;0.20;;;;;;;5.74;100.00;99083.72;5040991;28;20454;-76
2021/12/25 00:10:08;;;;;;;0.30;0.20;;;;;;;5.56;100.00;99082.47;5046226;28;20505;-77
2021/12/25 00:12:35;;;;;;;0.30;0.13;;;;;;;5.58;100.00;99082.44;5044335;28;20450;-77
2021/12/25 00:15:03;;;;;;;0.23;0.17;;;;;;;5.50;100.00;99068.63;5031907;28;20502;-77
2021/12/25 00:17:32;;;;;;;0.70;0.70;;;;;;;5.59;100.00;99077.13;5044177;28;20451;-76
2021/12/25 00:19:59;;;;;;;0.30;0.20;;;;;;;5.49;100.00;99067.75;5040850;28;20495;-75
2021/12/25 00:22:25;;;;;;;0.20;0.10;;;;;;;5.53;100.00;99066.75;5038970;28;20455;-75
2021/12/25 00:24:52;;;;;;;0.20;0.20;;;;;;;5.34;100.00;99044.44;5037914;28;20483;-76
2021/12/25 00:27:39;;;;;;;0.20;0.20;;;;;;;5.50;100.00;99058.09;5040805;28;20510;-75
2021/12/25 00:30:20;;;;;;;0.20;0.17;;;;;;;5.48;100.00;99067.78;5043387;28;20451;-76
2021/12/25 00:35:13;;;;;;;0.20;0.20;;;;;;;5.47;100.00;99066.91;5040591;28;20474;-76
2021/12/25 00:37:40;;;;;;;0.20;0.10;;;;;;;5.49;100.00;99083.56;5043457;28;20456;-76
2021/12/25 00:40:07;;;;;;;0.20;0.20;;;;;;;5.25;100.00;99074.56;5042363;28;20486;-76
2021/12/25 00:42:34;;;;;;;0.20;0.10;;;;;;;5.16;100.00;99076.56;5043709;28;20471;-75
2021/12/25 00:45:01;;;;;;;0.20;0.20;;;;;;;5.04;100.00;99067.22;5044465;28;20466;-75
2021/12/25 00:47:27;;;;;;;0.20;0.10;;;;;;;4.98;100.00;99064.75;5037876;28;20455;-75
2021/12/25 00:49:54;;;;;;;0.20;0.20;;;;;;;5.15;100.00;99077.47;5036715;28;20764;-76
2021/12/25 00:52:21;;;;;;;0.20;0.20;;;;;;;5.23;100.00;99075.50;5035995;28;20451;-76
2021/12/25 00:54:47;;;;;;;0.20;0.20;;;;;;;5.28;100.00;99074.47;5035199;28;20981;-75
2021/12/25 00:57:14;;;;;;;5.10;1.17;;;;;;;5.32;100.00;99081.38;5035270;28;20444;-76
2021/12/25 00:59:41;;;;;;;0.30;0.30;;;;;;;5.28;100.00;99058.66;5035561;28;20497;-77
2021/12/25 01:02:08;;;;;;;0.30;0.20;;;;;;;5.38;100.00;99066.31;5033631;28;20475;-76
2021/12/25 01:04:35;;;;;;;0.30;0.20;;;;;;;5.39;100.00;99074.19;5034772;28;20464;-76
2021/12/25 01:07:02;;;;;;;0.30;0.20;;;;;;;5.38;100.00;99072.47;5037318;28;20471;-76
2021/12/25 01:09:29;;;;;;;0.23;0.20;;;;;;;5.40;100.00;99073.28;5033769;28;20452;-77
2021/12/25 01:11:57;;;;;;;0.30;0.20;;;;;;;5.42;100.00;99075.88;5034804;28;20933;-76
2021/12/25 01:14:44;;;;;;;0.40;0.40;;;;;;;5.35;100.00;99076.03;5034708;28;20476;-76
2021/12/25 01:38:37;;;;;;;0.20;0.10;;;;;;;5.74;100.00;99088.13;5049924;28;20485;-76
2021/12/25 01:41:17;;;;;;;0.20;0.20;;;;;;;5.71;100.00;99082.97;5033941;28;20475;-77
2021/12/25 01:49:27;;;;;;;0.20;0.10;;;;;;;5.75;100.00;99079.31;4995509;28;20888;-76
2021/12/25 01:51:54;;;;;;;0.20;0.10;;;;;;;5.63;100.00;99073.50;5014599;28;20477;-75
2021/12/25 01:54:21;;;;;;;0.30;0.20;;;;;;;5.78;100.00;99073.97;5017246;28;20463;-75
2021/12/25 01:56:48;;;;;;;0.20;0.20;;;;;;;5.77;100.00;99070.47;5034048;28;20490;-76
2021/12/25 01:59:15;;;;;;;0.20;0.10;;;;;;;5.77;100.00;99070.47;5033685;28;20584;-75
2021/12/25 02:01:42;;;;;;;0.20;0.10;;;;;;;5.71;100.00;99059.22;5033710;28;20909;-76
2021/12/25 02:04:10;;;;;;;0.30;0.20;;;;;;;5.72;100.00;99055.69;5032817;28;20471;-76
2021/12/25 02:06:37;;;;;;;0.60;0.60;;;;;;;5.80;100.00;99064.25;5032720;28;20453;-76
2021/12/25 02:09:05;;;;;;;0.30;0.20;;;;;;;5.68;100.00;99065.47;5033603;28;20948;-76
2021/12/25 02:11:32;;;;;;;0.20;0.20;;;;;;;5.78;100.00;99061.66;5032882;28;20498;-76
2021/12/25 02:13:59;;;;;;;0.20;0.20;;;;;;;5.76;100.00;99050.31;5034210;28;21019;-75
2021/12/25 02:16:30;;;;;;;1.17;1.17;;;;;;;5.74;100.00;99052.09;5034451;28;20456;-76
2021/12/25 02:21:31;;;;;;;0.20;0.10;;;;;;;5.82;100.00;99039.56;5034130;28;20488;-76
2021/12/25 02:23:58;;;;;;;0.20;0.10;;;;;;;5.93;100.00;99041.91;5028422;28;20460;-76
2021/12/25 02:26:26;;;;;;;0.20;0.10;;;;;;;5.97;100.00;99038.28;5013469;28;20453;-76
2021/12/25 02:28:53;;;;;;;0.20;0.20;;;;;;;5.98;100.00;99037.34;5015752;28;20449;-76
2021/12/25 02:31:20;;;;;;;0.53;0.50;;;;;;;5.93;100.00;99034.88;5033382;28;20945;-76
2021/12/25 02:33:47;;;;;;;0.20;0.20;;;;;;;5.90;100.00;99032.34;5032540;28;20444;-77
2021/12/25 02:36:14;;;;;;;0.20;0.10;;;;;;;5.96;100.00;99033.91;5033652;28;20443;-76
2021/12/25 02:38:43;;;;;;;0.20;0.20;;;;;;;5.99;100.00;99032.94;5033355;28;20448;-76
2021/12/25 02:41:10;;;;;;;0.73;0.73;;;;;;;6.02;100.00;99025.78;5033542;28;20472;-76
2021/12/25 02:43:37;;;;;;;0.70;0.70;;;;;;;6.04;100.00;99029.28;5033692;28;20452;-76
2021/12/25 02:46:05;;;;;;;0.20;0.10;;;;;;;6.03;100.00;99027.56;5033464;28;20854;-76
2021/12/25 02:48:36;;;;;;;0.20;0.20;;;;;;;6.08;100.00;99022.13;5040633;28;20446;-76
2021/12/25 02:51:07;;;;;;;0.20;0.20;;;;;;;6.02;100.00;99017.88;5052368;28;20813;-77
2021/12/25 02:53:36;;;;;;;2.10;1.23;;;;;;;6.04;100.00;99013.44;5052895;28;20427;-77
2021/12/25 02:56:03;;;;;;;0.20;0.20;;;;;;;6.01;100.00;99010.03;5051903;28;20447;-77
2021/12/25 02:58:29;;;;;;;0.20;0.20;;;;;;;5.92;100.00;99005.91;5052913;28;20427;-76
2021/12/25 03:01:08;;;;;;;0.20;0.13;;;;;;;5.91;100.00;99009.47;5052987;28;20521;-76
2021/12/25 03:03:35;;;;;;;0.20;0.20;;;;;;;5.96;100.00;99010.16;5052824;28;20460;-76
2021/12/25 03:06:07;;;;;;;0.20;0.20;;;;;;;6.05;100.00;99012.53;5051954;28;20881;-76
2021/12/25 03:08:35;;;;;;;0.20;0.20;;;;;;;5.97;100.00;99008.41;5052523;28;20427;-76
2021/12/25 03:11:06;;;;;;;0.20;0.20;;;;;;;6.00;100.00;99011.78;5052758;28;20443;-77
2021/12/25 03:14:31;;;;;;;0.20;0.20;;;;;;;6.02;100.00;99009.09;5052507;28;20505;-76
2021/12/25 03:16:25;;;;;;;0.20;0.17;;;;;;;6.01;100.00;99008.25;5046903;28;20458;-76
2021/12/25 03:18:55;;;;;;;0.20;0.10;;;;;;;6.03;100.00;99008.19;5048524;28;20531;-76
2021/12/25 03:21:22;;;;;;;0.20;0.10;;;;;;;6.04;100.00;99007.31;5031171;28;20996;-76
2021/12/25 03:23:52;;;;;;;12.20;1.40;;;;;;;6.03;100.00;99002.91;5031461;28;20545;-76
2021/12/25 03:26:19;;;;;;;0.30;0.20;;;;;;;6.05;100.00;99003.75;5032775;28;20428;-76
2021/12/25 03:28:46;;;;;;;0.20;0.20;;;;;;;6.03;100.00;99000.28;5053989;28;20847;-77
2021/12/25 03:31:17;;;;;;;0.20;0.10;;;;;;;6.10;100.00;99007.97;5056790;28;20435;-76
2021/12/25 03:33:47;;;;;;;0.20;0.20;;;;;;;6.08;100.00;99004.53;5049133;28;20739;-77
2021/12/25 03:36:14;;;;;;;0.20;0.20;;;;;;;6.10;100.00;99007.97;5036719;28;20458;-76
2021/12/25 03:38:41;;;;;;;0.30;0.20;;;;;;;6.12;100.00;98994.72;5036751;28;20452;-77
2021/12/25 03:41:08;;;;;;;0.20;0.20;;;;;;;6.11;100.00;98990.38;5048612;28;20512;-77
2021/12/25 03:43:38;;;;;;;0.20;0.20;;;;;;;6.10;100.00;98997.41;5049295;28;20452;-76
2021/12/25 03:46:09;;;;;;;0.20;0.20;;;;;;;5.92;100.00;98992.72;5036385;28;20517;-76
2021/12/25 03:48:58;;;;;;;0.20;0.20;;;;;;;6.02;100.00;98996.78;5035977;28;20466;-76
2021/12/25 03:59:46;;;;;;;0.20;0.10;;;;;;;6.10;100.00;99002.69;5016523;28;20425;-76
2021/12/25 04:02:20;;;;;;;0.20;0.10;;;;;;;6.12;100.00;99005.28;5016206;28;20621;-77
2021/12/25 04:04:49;;;;;;;0.83;0.83;;;;;;;6.16;100.00;99002.50;5031371;28;20515;-75
2021/12/25 04:09:43;;;;;;;0.20;0.10;;;;;;;6.15;100.00;98997.25;5035881;28;20941;-75
2021/12/25 04:12:12;;;;;;;0.20;0.20;;;;;;;6.17;100.00;98996.34;5033739;28;20463;-75
2021/12/25 04:14:40;;;;;;;0.20;0.20;;;;;;;6.14;100.00;98985.84;5015811;28;20901;-75
2021/12/25 04:17:07;;;;;;;6.53;3.50;;;;;;;6.13;100.00;98992.03;5030835;28;20525;-75
2021/12/25 04:19:34;;;;;;;0.20;0.20;;;;;;;6.05;100.00;98994.06;5026860;28;20510;-76
2021/12/25 04:22:05;;;;;;;0.20;0.20;;;;;;;6.15;100.00;99006.03;5034558;28;20894;-75
2021/12/25 04:24:38;;;;;;;0.20;0.20;;;;;;;6.11;100.00;99003.56;5034522;28;20517;-75
2021/12/25 04:27:08;;;;;;;0.20;0.10;;;;;;;6.27;100.00;99007.44;5033340;28;20471;-75
2021/12/25 04:29:41;;;;;;;0.20;0.20;;;;;;;6.22;100.00;98986.47;5035378;28;20432;-75
2021/12/25 05:02:13;;;;;;;0.20;0.17;;;;;;;6.22;100.00;99019.91;5034919;28;21099;-76
2021/12/25 05:04:49;;;;;;;0.20;0.10;;;;;;;6.33;100.00;98998.47;5026140;28;20483;-76
2021/12/25 05:07:16;;;;;;;0.20;0.10;;;;;;;6.07;100.00;98994.88;5034769;28;20990;-76
2021/12/25 05:09:42;;;;;;;0.50;0.50;;;;;;;5.97;100.00;98990.78;5015451;28;20915;-77
2021/12/25 05:12:09;;;;;;;0.30;0.20;;;;;;;6.09;100.00;98985.16;5031992;28;20875;-77
2021/12/25 05:14:36;;;;;;;0.20;0.20;;;;;;;6.24;100.00;98995.22;5034286;28;20483;-76
2021/12/25 05:17:03;;;;;;;0.20;0.20;;;;;;;6.20;100.00;98985.66;5035889;28;20466;-76
2021/12/25 05:19:29;;;;;;;0.27;0.20;;;;;;;6.18;100.00;98984.88;5044595;28;20521;-76
2021/12/25 05:21:56;;;;;;;0.20;0.10;;;;;;;6.24;100.00;98983.78;5033263;28;20585;-78
2021/12/25 05:24:23;;;;;;;0.20;0.20;;;;;;;6.36;100.00;98987.81;5036190;28;20832;-77
2021/12/25 05:26:49;;;;;;;0.30;0.30;;;;;;;6.40;100.00;98995.56;5044821;28;20508;-76
2021/12/25 05:29:23;;;;;;;0.20;0.10;;;;;;;6.41;100.00;98993.78;5033996;28;20456;-77
2021/12/25 05:31:50;;;;;;;0.20;0.10;;;;;;;6.39;100.00;98996.47;5034245;28;20932;-77
2021/12/25 05:34:17;;;;;;;0.20;0.20;;;;;;;6.41;100.00;98985.88;5033488;28;20546;-77
2021/12/25 05:36:45;;;;;;;2.83;2.73;;;;;;;6.66;100.00;98993.84;5040420;28;20459;-77
2021/12/25 05:39:13;;;;;;;0.20;0.10;;;;;;;7.01;100.00;98998.81;5034131;28;20509;-77
2021/12/25 05:41:40;;;;;;;0.20;0.10;;;;;;;6.58;100.00;99002.03;5036358;28;20491;-77
2021/12/25 05:44:07;;;;;;;0.20;0.20;;;;;;;6.47;100.00;98985.69;5033486;28;20483;-77
2021/12/25 05:46:37;;;;;;;0.20;0.20;;;;;;;6.45;100.00;98987.53;5033974;28;20458;-77
2021/12/25 05:49:04;;;;;;;0.20;0.17;;;;;;;6.49;100.00;98994.41;5035841;28;20550;-76
2021/12/25 05:51:32;;;;;;;0.20;0.20;;;;;;;6.48;100.00;98996.19;5041057;28;20979;-77
2021/12/25 05:53:59;;;;;;;0.20;0.20;;;;;;;6.44;100.00;98994.56;5032750;28;20483;-77
2021/12/25 05:56:26;;;;;;;0.20;0.20;;;;;;;6.44;100.00;98991.03;5044301;28;20459;-77
2021/12/25 05:58:52;;;;;;;0.20;0.20;;;;;;;6.38;100.00;98976.28;5032283;28;21023;-77
2021/12/25 06:01:20;;;;;;;0.20;0.20;;;;;;;6.26;100.00;98978.47;5025790;28;20522;-77
2021/12/25 06:03:47;;;;;;;2.50;2.30;;;;;;;6.17;100.00;98969.94;5033697;28;20462;-77
2021/12/25 06:06:14;;;;;;;0.20;0.17;;;;;;;6.08;100.00;98972.00;5036968;28;20459;-77
2021/12/25 06:08:41;;;;;;;0.43;0.43;;;;;;;6.17;100.00;98972.59;5033527;28;20521;-77
2021/12/25 06:11:08;;;;;;;0.20;0.20;;;;;;;6.30;100.00;98966.88;5042220;28;20447;-77
2021/12/25 06:13:43;;;;;;;0.30;0.20;;;;;;;6.36;100.00;98969.34;5039517;28;20521;-76
2021/12/25 06:16:10;;;;;;;0.20;0.20;;;;;;;6.39;100.00;98971.88;5042934;28;20506;-76
2021/12/25 06:18:37;;;;;;;0.20;0.10;;;;;;;6.38;100.00;98968.38;5039982;28;20543;-76
2021/12/25 06:21:03;;;;;;;0.20;0.20;;;;;;;6.41;100.00;98970.03;5032204;28;20458;-77
2021/12/25 06:23:30;;;;;;;0.30;0.20;;;;;;;6.37;100.00;98971.94;5039562;28;20483;-76
2021/12/25 06:25:56;;;;;;;0.20;0.20;;;;;;;6.44;100.00;98978.75;5038788;28;20447;-77
2021/12/25 06:28:23;;;;;;;0.20;0.20;;;;;;;6.44;100.00;98976.09;5034752;28;20452;-77
2021/12/25 06:30:50;;;;;;;0.20;0.10;;;;;;;6.46;100.00;98983.97;5041663;28;20455;-77
2021/12/25 06:33:17;;;;;;;0.20;0.20;;;;;;;6.57;100.00;98976.53;5032806;28;21166;-77
2021/12/25 06:35:44;;;;;;;0.20;0.20;;;;;;;6.66;100.00;98978.00;5034190;28;20822;-77
2021/12/25 06:38:11;;;;;;;0.20;0.20;;;;;;;6.73;100.00;98982.19;5031706;28;20447;-77
2021/12/25 06:40:37;;;;;;;0.20;0.20;;;;;;;6.80;100.00;98987.19;5036042;28;20459;-76
2021/12/25 06:43:04;;;;;;;0.20;0.10;;;;;;;6.93;100.00;98999.97;5034031;28;20999;-77
2021/12/25 06:45:31;;;;;;;0.20;0.17;;;;;;;6.83;100.00;98996.78;5037729;28;20476;-77
2021/12/25 06:47:58;;;;;;;0.20;0.20;;;;;;;6.86;100.00;99001.97;5036061;28;20553;-76
2021/12/25 06:50:25;;;;;;;0.20;0.20;;;;;;;6.79;100.00;98996.03;5040096;28;20469;-76
2021/12/25 06:52:52;;;;;;;0.20;0.20;;;;;;;6.75;100.00;98996.19;5033809;28;20509;-77
2021/12/25 06:55:18;;;;;;;0.20;0.10;;;;;;;6.80;100.00;99003.03;5032831;28;20468;-77
2021/12/25 06:57:52;;;;;;;0.20;0.20;;;;;;;6.70;100.00;99006.88;5027763;28;20568;-77
2021/12/25 07:00:19;;;;;;;0.20;0.20;;;;;;;6.60;100.00;99005.50;5033498;28;20456;-77
2021/12/25 07:02:46;;;;;;;0.30;0.20;;;;;;;6.52;100.00;99003.09;5036529;28;20533;-77
2021/12/25 07:05:13;;;;;;;0.20;0.20;;;;;;;6.59;100.00;99005.53;5047904;28;20471;-77
2021/12/25 07:07:39;;;;;;;0.20;0.20;;;;;;;6.64;100.00;99015.03;5024040;28;22016;-76
2021/12/25 07:10:07;;;;;;;0.20;0.10;;;;;;;6.50;100.00;99015.47;5032688;28;20482;-76
2021/12/25 07:12:37;;;;;;;0.20;0.20;;;;;;;6.52;100.00;99024.22;5032190;28;20459;-76
2021/12/25 07:15:06;;;;;;;0.20;0.10;;;;;;;6.60;100.00;99015.19;5040275;28;20475;-76
2021/12/25 07:17:34;;;;;;;0.20;0.10;;;;;;;6.60;100.00;99025.75;5030408;28;20501;-76
2021/12/25 07:20:00;;;;;;;0.20;0.20;;;;;;;6.69;100.00;99023.66;5025965;28;20489;-76
2021/12/25 07:22:28;;;;;;;0.20;0.20;;;;;;;6.84;100.00;99035.47;5030311;28;20486;-76
2021/12/25 07:24:55;;;;;;;0.20;0.20;;;;;;;6.86;100.00;99043.38;5032897;28;20471;-76
2021/12/25 07:27:22;;;;;;;0.20;0.20;;;;;;;6.81;100.00;99056.72;5037596;28;20451;-76
2021/12/25 07:29:48;;;;;;;0.20;0.20;;;;;;;6.84;100.00;99057.47;5032217;28;20537;-76
2021/12/25 07:32:15;;;;;;;0.20;0.20;;;;;;;6.83;100.00;99061.03;5031853;28;20509;-77
2021/12/25 07:34:45;;;;;;;0.20;0.20;;;;;;;6.87;100.00;99063.59;5031228;28;20522;-76
2021/12/25 07:37:13;;;;;;;0.20;0.20;;;;;;;6.87;100.00;99063.59;5032561;28;20455;-77
2021/12/25 07:39:42;;;;;;;0.30;0.20;;;;;;;6.85;100.00;99060.97;5033853;28;20490;-76
2021/12/25 07:42:09;;;;;;;0.20;0.20;;;;;;;6.87;100.00;99060.94;5032647;28;20851;-76
2021/12/25 07:44:35;;;;;;;0.30;0.20;;;;;;;6.88;100.00;99060.88;5033930;28;20530;-76
2021/12/25 07:47:08;;;;;;;0.40;0.40;;;;;;;6.87;100.00;99064.44;5034563;28;20884;-76
2021/12/25 07:49:35;;;;;;;0.20;0.20;;;;;;;6.71;100.00;99066.69;5032252;28;20455;-77
2021/12/25 07:52:03;;;;;;;0.20;0.20;;;;;;;6.63;100.00;99066.09;5033831;28;20457;-75
2021/12/25 07:54:30;;;;;;;0.20;0.20;;;;;;;6.57;100.00;99071.56;5034233;28;20902;-75
2021/12/25 07:56:57;;;;;;;0.20;0.20;;;;;;;6.35;100.00;99074.03;5035520;28;20452;-75
2021/12/25 07:59:23;;;;;;;0.20;0.20;;;;;;;6.20;100.00;99072.75;5031435;28;21011;-77
2021/12/25 08:01:50;;;;;;;0.20;0.10;;;;;;;6.10;100.00;99071.28;5037238;28;20459;-77
2021/12/25 08:04:19;;;;;;;0.20;0.20;;;;;;;6.15;100.00;99069.34;5036929;28;20478;-77
2021/12/25 08:06:45;;;;;;;0.20;0.13;;;;;;;6.07;100.00;99068.75;5039616;28;20466;-77
2021/12/25 08:09:12;;;;;;;0.83;0.83;;;;;;;6.13;100.00;99073.81;5034575;28;20486;-77
2021/12/25 08:11:38;;;;;;;0.83;0.83;;;;;;;6.12;100.00;99076.50;5024483;28;21018;-77
2021/12/25 08:14:05;;;;;;;0.20;0.10;;;;;;;6.28;100.00;99072.47;5035652;28;20510;-77
2021/12/25 08:16:32;;;;;;;0.20;0.20;;;;;;;6.22;100.00;99077.97;5038196;28;20459;-77
2021/12/25 08:18:58;;;;;;;0.30;0.10;;;;;;;6.23;100.00;99077.91;5036174;28;20494;-77
2021/12/25 08:21:25;;;;;;;0.20;0.20;;;;;;;6.31;100.00;99085.59;5047953;28;20853;-77
2021/12/25 08:23:54;;;;;;;0.20;0.20;;;;;;;6.65;100.00;99097.72;5034873;28;20519;-75
2021/12/25 08:26:21;;;;;;;0.30;0.27;;;;;;;6.73;100.00;99096.59;5042474;28;20506;-75
2021/12/25 08:28:47;;;;;;;0.20;0.20;;;;;;;6.36;100.00;99096.88;5034457;28;20455;-75
2021/12/25 08:31:14;;;;;;;0.30;0.20;;;;;;;6.32;100.00;99097.03;5030701;28;20460;-75
2021/12/25 08:33:41;;;;;;;0.20;0.10;;;;;;;6.17;100.00;99095.72;5024512;28;20490;-75
2021/12/25 08:36:07;;;;;;;0.20;0.10;;;;;;;6.18;100.00;99114.13;5035926;28;21059;-76
2021/12/25 08:38:35;;;;;;;0.20;0.20;;;;;;;6.43;100.00;99118.66;5038612;28;20452;-75
2021/12/25 08:41:02;;;;;;;0.20;0.20;;;;;;;6.44;100.00;99117.72;5033705;28;20455;-75
2021/12/25 08:43:34;;;;;;;0.20;0.20;;;;;;;6.28;100.00;99113.84;5030000;28;20495;-75
2021/12/25 08:46:10;;;;;;;0.20;0.20;;;;;;;6.15;100.00;99121.25;5033244;28;20460;-75
2021/12/25 08:48:38;;;;;;;0.30;0.20;;;;;;;6.34;100.00;99137.41;5039789;28;20483;-76
2021/12/25 08:51:04;;;;;;;0.20;0.20;;;;;;;6.50;100.00;99146.59;5036554;28;20463;-76
2021/12/25 08:53:32;;;;;;;0.20;0.20;;;;;;;6.47;100.00;99144.94;5034079;28;20456;-75
2021/12/25 08:55:59;;;;;;;0.20;0.10;;;;;;;6.08;100.00;99135.56;5042922;28;20462;-76
2021/12/25 08:58:30;;;;;;;1.03;1.03;;;;;;;5.92;100.00;99133.34;5032035;28;20456;-76
2021/12/25 09:01:01;;;;;;;0.20;0.10;;;;;;;5.75;100.00;99132.91;5032187;28;20933;-76
2021/12/25 09:03:30;;;;;;;0.33;0.33;;;;;;;6.11;100.00;99157.41;5025217;28;20493;-76
2021/12/25 09:05:59;;;;;;;0.20;0.20;;;;;;;6.19;100.00;99167.75;5041107;28;20459;-76
2021/12/25 09:08:26;;;;;;;0.30;0.20;;;;;;;6.60;100.00;99165.66;5048731;28;20500;-76
2021/12/25 09:10:54;;;;;;;0.20;0.20;;;;;;;6.44;100.00;99163.50;5024915;28;20449;-76
2021/12/25 09:13:20;;;;;;;0.20;0.20;;;;;;;6.35;100.00;99153.22;5045048;28;20451;-76
2021/12/25 09:15:47;;;;;;;0.20;0.20;;;;;;;6.13;100.00;99145.03;5034528;28;20524;-75
2021/12/25 09:18:14;;;;;;;0.20;0.10;;;;;;;6.04;100.00;99140.06;5033697;28;20460;-76
2021/12/25 09:20:40;;;;;;;0.20;0.13;;;;;;;6.04;100.00;99139.19;5052834;28;20451;-76
2021/12/25 09:23:07;;;;;;;0.20;0.10;;;;;;;6.18;100.00;99151.06;5042440;28;20924;-76
2021/12/25 09:25:34;;;;;;;0.20;0.20;;;;;;;5.91;100.00;99155.38;5026695;28;20468;-76
2021/12/25 09:28:00;;;;;;;0.20;0.20;;;;;;;6.18;100.00;99166.03;5021250;28;20461;-75
2021/12/25 09:30:27;;;;;;;0.20;0.20;;;;;;;6.17;100.00;99154.63;5037078;28;20494;-76
2021/12/25 09:32:54;;;;;;;0.20;0.20;;;;;;;6.44;100.00;99157.31;5036895;28;20462;-77
2021/12/25 09:35:21;;;;;;;0.20;0.20;;;;;;;6.38;100.00;99176.00;5028646;28;20472;-76
2021/12/25 09:37:48;;;;;;;0.20;0.20;;;;;;;6.64;100.00;99181.38;5037576;28;20452;-76
2021/12/25 09:40:15;;;;;;;0.20;0.10;;;;;;;6.73;100.00;99189.00;5038639;28;20549;-77
2021/12/25 09:42:44;;;;;;;0.20;0.10;;;;;;;6.48;100.00;99190.66;5029070;28;20495;-76
2021/12/25 09:45:12;;;;;;;0.20;0.20;;;;;;;6.23;100.00;99182.59;5015006;28;20529;-76
2021/12/25 09:47:39;;;;;;;0.20;0.10;;;;;;;6.26;100.00;99186.91;5036351;28;20463;-75
2021/12/25 09:50:07;;;;;;;0.20;0.20;;;;;;;6.42;100.00;99189.03;5039105;28;20455;-76
2021/12/25 09:52:34;;;;;;;0.20;0.20;;;;;;;6.48;100.00;99188.03;5024492;28;20526;-75
2021/12/25 09:55:01;;;;;;;0.20;0.20;;;;;;;6.47;100.00;99192.44;5034554;28;20511;-76
2021/12/25 09:57:33;;;;;;;0.20;0.20;;;;;;;6.31;100.00;99187.66;5034467;28;20457;-75
2021/12/25 10:00:16;;;;;;;0.20;0.20;;;;;;;6.25;100.00;99186.03;5034605;28;20498;-75
2021/12/25 10:02:46;;;;;;;0.20;0.10;;;;;;;6.14;100.00;99193.41;5034978;28;20490;-77
2021/12/25 10:05:23;;;;;;;0.20;0.10;;;;;;;5.96;100.00;99192.16;5031960;28;20537;-77
2021/12/25 10:08:11;;;;;;;0.20;0.10;;;;;;;5.70;100.00;99190.19;5012986;28;20487;-77
2021/12/25 10:10:45;;;;;;;0.20;0.10;;;;;;;6.00;100.00;99180.59;5030672;28;20936;-77
2021/12/25 10:13:26;;;;;;;0.20;0.20;;;;;;;6.04;100.00;99186.66;5033490;28;20521;-77
2021/12/25 10:15:57;;;;;;;0.20;0.10;;;;;;;6.06;100.00;99185.72;5028176;28;20475;-77
2021/12/25 10:18:31;;;;;;;0.20;0.20;;;;;;;6.05;100.00;99199.81;5031646;28;20877;-78
2021/12/25 10:21:20;;;;;;;0.20;0.10;;;;;;;6.02;100.00;99199.00;5042600;28;20562;-77
2021/12/25 10:24:13;;;;;;;0.20;0.13;;;;;;;6.10;100.00;99202.31;5037388;28;20487;-77
2021/12/25 10:26:45;;;;;;;0.30;0.20;;;;;;;6.16;100.00;99207.41;5029415;28;20478;-76
2021/12/25 10:29:17;;;;;;;0.20;0.20;;;;;;;6.12;100.00;99203.13;5027494;28;20456;-75
2021/12/25 10:31:44;;;;;;;0.20;0.20;;;;;;;6.19;100.00;99207.34;5031551;28;20463;-78
2021/12/25 10:34:20;;;;;;;0.20;0.10;;;;;;;6.24;100.00;99202.78;5040791;28;20541;-77
2021/12/25 10:36:47;;;;;;;0.20;0.10;;;;;;;6.46;100.00;99210.97;5034564;28;20459;-77
2021/12/25 10:39:27;;;;;;;0.20;0.17;;;;;;;6.26;100.00;99214.16;5032583;28;20448;-78
2021/12/25 10:41:56;;;;;;;0.20;0.20;;;;;;;6.36;100.00;99222.69;5042390;28;20455;-76
2021/12/25 10:44:28;;;;;;;0.20;0.10;;;;;;;6.63;100.00;99213.97;5034843;28;20479;-77
2021/12/25 10:47:08;;;;;;;0.20;0.20;;;;;;;6.30;100.00;99225.47;5052814;28;20931;-77
2021/12/25 10:49:44;;;;;;;0.20;0.10;;;;;;;6.18;100.00;99222.31;5029729;28;20945;-77
2021/12/25 10:52:14;;;;;;;0.20;0.20;;;;;;;6.17;100.00;99220.59;5030729;28;21025;-77
2021/12/25 10:54:46;;;;;;;0.20;0.10;;;;;;;5.88;100.00;99217.81;5020761;28;20474;-77
2021/12/25 10:57:38;;;;;;;0.20;0.10;;;;;;;5.91;100.00;99225.69;5040310;28;20464;-77
2021/12/25 11:00:10;;;;;;;0.20;0.17;;;;;;;5.60;100.00;99220.31;5028979;28;20955;-77
2021/12/25 11:02:38;;;;;;;0.20;0.20;;;;;;;5.45;100.00;99213.66;5044362;28;20501;-76
2021/12/25 11:05:25;;;;;;;0.20;0.20;;;;;;;5.37;100.00;99215.66;5040276;28;20471;-76
2021/12/25 11:08:13;;;;;;;0.20;0.20;;;;;;;5.27;100.00;99216.75;5023908;28;20448;-77
2021/12/25 11:10:54;;;;;;;0.20;0.20;;;;;;;5.43;100.00;99211.97;5030258;28;20444;-76
2021/12/25 11:13:25;;;;;;;0.20;0.10;;;;;;;5.50;100.00;99217.06;5026173;28;20460;-77
2021/12/25 11:16:02;;;;;;;0.20;0.10;;;;;;;5.59;100.00;99222.09;5021878;28;20468;-77
2021/12/25 11:18:31;;;;;;;0.20;0.20;;;;;;;5.33;100.00;99228.00;5048927;28;20446;-76
2021/12/25 11:20:59;;;;;;;0.20;0.20;;;;;;;5.29;100.00;99228.13;5031800;28;20444;-77
2021/12/25 11:23:29;;;;;;;0.20;0.10;;;;;;;5.21;100.00;99232.72;5021813;28;20481;-77
2021/12/25 11:25:55;;;;;;;0.20;0.20;;;;;;;4.88;100.00;99237.00;5039919;28;20489;-77
2021/12/25 11:28:22;;;;;;;0.20;0.10;;;;;;;4.78;100.00;99233.69;5022071;28;20996;-77
2021/12/25 11:30:52;;;;;;;0.20;0.20;;;;;;;4.76;100.00;99238.13;5052538;28;20962;-77
2021/12/25 11:33:20;;;;;;;0.20;0.10;;;;;;;4.95;100.00;99246.50;5035790;28;20444;-77
2021/12/25 11:35:47;;;;;;;0.20;0.10;;;;;;;4.67;100.00;99243.63;5032866;28;20478;-76
2021/12/25 11:38:13;;;;;;;0.20;0.20;;;;;;;4.69;100.00;99241.81;5045666;28;20492;-77
2021/12/25 11:40:49;;;;;;;0.20;0.10;;;;;;;4.63;100.00;99245.44;5032468;28;20506;-76
2021/12/25 11:43:33;;;;;;;0.20;0.10;;;;;;;4.44;100.00;99230.94;5018058;28;20521;-75
2021/12/25 11:45:59;;;;;;;0.20;0.20;;;;;;;4.31;100.00;99235.59;5019816;28;20433;-76
2021/12/25 11:48:26;;;;;;;0.20;0.10;;;;;;;4.46;100.00;99235.28;5040564;28;20468;-76
2021/12/25 11:50:53;;;;;;;0.30;0.20;;;;;;;4.53;100.00;99235.16;5056288;28;20492;-76
2021/12/25 11:53:42;;;;;;;0.20;0.10;;;;;;;4.66;100.00;99239.22;5056511;28;20443;-76
2021/12/25 11:58:49;;;;;;;0.20;0.10;;;;;;;4.52;100.00;99255.31;5036478;28;20436;-77
2021/12/25 12:01:33;;;;;;;0.20;0.10;;;;;;;4.50;100.00;99257.13;5048865;28;21082;-76
2021/12/25 12:04:21;;;;;;;0.20;0.10;;;;;;;4.53;100.00;99253.56;5023033;28;20586;-76
2021/12/25 12:06:48;;;;;;;0.20;0.20;;;;;;;4.30;100.00;99249.63;5048420;28;20450;-77
2021/12/25 12:09:25;;;;;;;0.20;0.10;;;;;;;4.24;100.00;99249.75;5038177;28;20986;-77
2021/12/25 12:12:04;;;;;;;0.20;0.10;;;;;;;4.12;100.00;99253.50;5050219;28;20877;-77
2021/12/25 12:14:32;;;;;;;0.20;0.13;;;;;;;4.25;100.00;99251.50;5047531;28;20487;-77
2021/12/25 12:17:03;;;;;;;0.20;0.10;;;;;;;3.98;100.00;99252.91;5024327;28;20448;-78
2021/12/25 12:19:34;;;;;;;0.20;0.10;;;;;;;4.22;100.00;99259.44;5049183;28;20498;-78
2021/12/25 12:22:16;;;;;;;0.20;0.10;;;;;;;4.07;100.00;99260.59;5040660;28;20465;-79
2021/12/25 12:25:02;;;;;;;0.20;0.20;;;;;;;4.01;100.00;99259.88;5042632;28;20499;-77
2021/12/25 12:27:36;;;;;;;0.20;0.20;;;;;;;3.96;100.00;99259.94;5046904;28;20498;-77
2021/12/25 12:30:10;;;;;;;0.20;0.10;;;;;;;3.96;100.00;99265.19;5039368;28;20987;-77
2021/12/25 12:32:44;;;;;;;0.20;0.10;;;;;;;4.24;100.00;99270.78;5046189;28;20444;-77
2021/12/25 12:35:29;;;;;;;0.20;0.20;;;;;;;4.15;100.00;99269.22;5042244;28;20477;-77
2021/12/25 12:38:47;;;;;;;0.20;0.10;;;;;;;4.41;100.00;99275.75;5056323;28;20463;-77
2021/12/25 12:41:14;;;;;;;0.20;0.10;;;;;;;4.05;100.00;99269.41;5049464;28;20859;-77
2021/12/25 12:43:50;;;;;;;0.20;0.20;;;;;;;4.15;100.00;99282.38;5043370;28;20906;-78
2021/12/25 12:46:16;;;;;;;0.20;0.10;;;;;;;4.00;100.00;99273.91;5043420;28;21443;-78
2021/12/25 12:49:02;;;;;;;0.20;0.10;;;;;;;3.89;100.00;99278.50;5056971;28;20454;-77
2021/12/25 12:51:29;;;;;;;0.30;0.20;;;;;;;3.67;100.00;99273.59;5056496;28;20863;-77
2021/12/25 12:53:56;;;;;;;0.20;0.10;;;;;;;3.58;100.00;99267.66;5053959;28;20511;-77
2021/12/25 12:56:23;;;;;;;0.20;0.10;;;;;;;3.62;100.00;99262.31;5044431;28;20947;-77
2021/12/25 12:58:56;;;;;;;0.20;0.10;;;;;;;3.68;100.00;99271.84;5054637;28;21013;-77
2021/12/25 13:01:27;;;;;;;0.20;0.10;;;;;;;3.72;100.00;99276.16;5047316;28;20502;-79